Airfield :
LOGIN :

Register | Disclaimer

   EN    FR    IT 

 










Legend :    VFR   Marginal VFR   IFR   Intensive IFR   Very Intensive IFR
Visi :
Ceiling :
>= 8 km
>= 3000ft
5 to 8 km
1000 to 3000 ft
1500m to 5 km
500 to 1000 ft
800 to 1500m
200 to 500 ft
< 800m
< 200 ft
Symbols :   Thunderstorms  Fog  Heavy snow  Heavy precipitations  Wind > 20 kt
SIGMETs :     Misc.  Thunderstorms  Icing  Turbulence  Mountain Waves  Volcanic Ashes







- Airport Elevation : 299 ft
- IATA code : EDM
- Download approach charts


LFRI - La Roche Sur Yon - Les Ajoncs

CURRENT METAR :
  • 160800Z AUTO 16004KT 9999 OVC024 01/M00 Q1014 NOSIG

EXPIRED METARs :
  • 160730Z AUTO 15005KT 9999 BKN028 BKN240 01/M00 Q1014 NOSIG
  • 160700Z AUTO 15005KT 9999 SCT026 BKN230 01/M00 Q1014 NOSIG
  • 160630Z AUTO 15005KT CAVOK 02/M00 Q1014 NOSIG
  • 160600Z AUTO 15005KT CAVOK 02/00 Q1015 TEMPO 4500 BR
  • 160530Z AUTO 14004KT CAVOK 01/00 Q1015

TAF TAF LFRI
Valid from the 16 at 06:00 until the 17 at 06:00 UTC


160500Z 1606/1706 VRB03KT 9999 BKN028
PROB30
TEMPO 1606/1607 4500 BR
BECMG 1612/1614 21010KT BKN012
TEMPO 1614/1618 3000 DZRA OVC005
TEMPO 1618/1620 32015G25KT 4000 SHRA BKN020TCU SCT030CB
BECMG 1620/1622 28008KT SCT020
TEMPO 1701/1705 27015G25KT 4000 -SHRA SCT020CB BKN030TCU
No reported NOTAMs for that airfield.



MET'MAP, your aeronautical weather chart ! - Copyright ORBIFLY December 2007 - Disclaimer

ORBIFLY MET'MAP TEAM :

Programming & Development : Alexandra Zaïnal
Concept & Development : Baudouin d'Aumeries
Co-Development & Prog : Marc-Olivier Méhu
Technical & hardware support : Manuel Goepfert

Contact : metmap@orbifly.com




SOURCES & CREDITS :

   NOAA